createdAt,value
2019-01-05T00:00:52.938Z,3.12
2019-01-05T00:03:41.952Z,3.20
2019-01-05T00:06:29.652Z,3.30
2019-01-05T00:09:05.844Z,3.12
2019-01-05T00:11:52.457Z,2.92
2019-01-05T00:14:52.248Z,2.80
2019-01-05T00:17:52.510Z,3.87
2019-01-05T00:20:47.514Z,3.10
2019-01-05T00:23:37.199Z,2.90
2019-01-05T00:26:23.323Z,2.60
2019-01-05T00:29:09.669Z,2.50
2019-01-05T00:31:55.767Z,2.70
2019-01-05T00:34:58.914Z,2.55
2019-01-05T00:37:44.653Z,2.73
2019-01-05T00:40:30.573Z,2.83
2019-01-05T00:43:28.450Z,2.70
2019-01-05T00:46:15.290Z,3.02
2019-01-05T00:49:20.106Z,3.00
2019-01-05T00:52:23.914Z,3.20
2019-01-05T00:55:10.966Z,3.10
2019-01-05T00:58:13.557Z,3.10
2019-01-05T01:01:06.614Z,3.05
2019-01-05T01:03:51.313Z,2.98
2019-01-05T01:06:36.914Z,2.80
2019-01-05T01:09:24.349Z,3.22
2019-01-05T01:12:10.354Z,2.83
2019-01-05T01:15:14.512Z,3.08
2019-01-05T01:18:04.941Z,2.95
2019-01-05T01:21:01.450Z,2.90
2019-01-05T01:23:51.578Z,3.27
2019-01-05T01:26:44.835Z,2.90
2019-01-05T01:29:31.408Z,2.70
2019-01-05T01:32:21.806Z,2.30
2019-01-05T01:35:07.830Z,2.62
2019-01-05T01:38:18.245Z,2.77
2019-01-05T01:41:05.793Z,2.55
2019-01-05T01:43:51.497Z,2.33
2019-01-05T01:46:37.570Z,2.08
2019-01-05T01:49:25.650Z,2.50
2019-01-05T01:52:12.341Z,2.20
2019-01-05T01:55:03.018Z,2.40
2019-01-05T01:57:56.651Z,2.60
2019-01-05T02:00:43.154Z,2.42
2019-01-05T02:03:32.361Z,2.27
2019-01-05T02:06:13.074Z,2.37
2019-01-05T02:09:04.505Z,2.02
2019-01-05T02:11:58.137Z,2.65
2019-01-05T02:14:54.665Z,2.40
2019-01-05T02:17:59.543Z,2.10
2019-01-05T02:20:58.306Z,2.10
2019-01-05T02:24:11.978Z,2.05
2019-01-05T02:27:33.542Z,2.30
2019-01-05T02:30:57.603Z,2.15
2019-01-05T02:34:11.917Z,1.90
2019-01-05T02:37:23.142Z,2.00
2019-01-05T02:40:17.513Z,2.30
2019-01-05T02:43:54.314Z,2.40
2019-01-05T02:47:18.161Z,2.58
2019-01-05T02:50:36.495Z,2.55
2019-01-05T02:53:49.451Z,2.30
2019-01-05T02:57:13.342Z,2.67
2019-01-05T03:00:43.551Z,2.40
2019-01-05T03:03:41.847Z,3.20
2019-01-05T03:06:56.481Z,3.03
2019-01-05T03:10:01.499Z,3.12
2019-01-05T03:13:13.446Z,3.20
2019-01-05T03:16:28.642Z,3.50
2019-01-05T03:19:49.427Z,3.22
2019-01-05T03:22:59.207Z,3.37
2019-01-05T03:25:53.870Z,3.42
2019-01-05T03:28:54.782Z,3.95
2019-01-05T03:32:07.266Z,3.40
2019-01-05T03:35:06.239Z,3.80
2019-01-05T03:38:29.294Z,4.60
2019-01-05T03:41:44.219Z,4.15
2019-01-05T03:44:47.918Z,3.80
2019-01-05T03:48:10.980Z,4.10
2019-01-05T03:51:11.290Z,4.00
2019-01-05T03:54:22.253Z,4.25
2019-01-05T03:57:26.317Z,4.70
2019-01-05T04:00:27.662Z,4.40
2019-01-05T04:03:58.240Z,4.58
2019-01-05T04:07:03.198Z,4.80
2019-01-05T04:10:07.621Z,5.00
2019-01-05T04:13:25.873Z,4.53
2019-01-05T04:16:41.752Z,4.80
2019-01-05T04:19:52.490Z,4.60
2019-01-05T04:23:31.798Z,4.23
2019-01-05T04:26:36.817Z,4.47
2019-01-05T04:29:27.030Z,4.55
2019-01-05T04:32:28.697Z,4.50
2019-01-05T04:35:40.098Z,4.92
2019-01-05T04:39:01.283Z,4.70
2019-01-05T04:42:16.554Z,4.40
2019-01-05T04:45:24.025Z,4.42
2019-01-05T04:48:40.950Z,4.20
2019-01-05T04:51:41.396Z,4.80
2019-01-05T04:55:01.509Z,4.27
2019-01-05T04:58:20.065Z,5.00
2019-01-05T05:01:31.216Z,4.83
2019-01-05T05:04:36.513Z,4.92
2019-01-05T05:08:01.205Z,4.60
2019-01-05T05:11:05.002Z,4.67
2019-01-05T05:14:08.977Z,4.00
2019-01-05T05:17:08.397Z,4.43
2019-01-05T05:20:17.431Z,4.30
2019-01-05T05:23:20.097Z,4.45
2019-01-05T05:26:35.083Z,4.30
2019-01-05T05:30:01.968Z,4.50
2019-01-05T05:33:16.795Z,4.58
2019-01-05T05:36:17.281Z,4.28
2019-01-05T05:39:30.479Z,4.45
2019-01-05T05:42:40.325Z,4.10
2019-01-05T05:45:44.008Z,4.17
2019-01-05T05:49:08.631Z,4.20
2019-01-05T05:52:11.559Z,4.65
2019-01-05T05:55:26.418Z,4.20
2019-01-05T05:58:49.331Z,4.20
2019-01-05T06:02:10.551Z,4.40
2019-01-05T06:05:20.750Z,4.50
2019-01-05T06:08:28.505Z,4.20
2019-01-05T06:11:24.721Z,3.90
2019-01-05T06:14:33.072Z,3.72
2019-01-05T06:17:51.777Z,4.00
2019-01-05T06:21:12.421Z,3.67
2019-01-05T06:24:35.174Z,3.70
2019-01-05T06:27:35.412Z,3.50
2019-01-05T06:30:50.586Z,4.40
2019-01-05T06:33:54.377Z,3.72
2019-01-05T06:37:02.637Z,3.47
2019-01-05T06:40:06.822Z,3.70
2019-01-05T06:43:20.321Z,3.50
2019-01-05T06:46:27.562Z,3.37
2019-01-05T06:49:48.666Z,3.42
2019-01-05T06:53:06.710Z,3.33
2019-01-05T06:56:15.908Z,3.40
2019-01-05T06:59:18.341Z,3.60
2019-01-05T07:02:24.956Z,3.98
2019-01-05T07:05:30.101Z,3.83
2019-01-05T07:08:41.385Z,3.40
2019-01-05T07:12:05.257Z,3.33
2019-01-05T07:15:29.349Z,3.40
2019-01-05T07:18:34.104Z,3.00
2019-01-05T07:22:01.286Z,3.70
2019-01-05T07:25:21.070Z,3.40
2019-01-05T07:28:37.899Z,3.37
2019-01-05T07:31:34.929Z,3.40
2019-01-05T07:34:50.109Z,3.87
2019-01-05T07:38:00.882Z,3.60
2019-01-05T07:41:05.490Z,3.67
2019-01-05T07:44:12.761Z,4.00
2019-01-05T07:47:06.887Z,3.10
2019-01-05T07:50:11.125Z,3.40
2019-01-05T07:53:16.108Z,3.60
2019-01-05T07:56:40.520Z,3.50
2019-01-05T07:59:48.750Z,3.22
2019-01-05T08:02:44.642Z,3.98
2019-01-05T08:05:44.461Z,3.40
2019-01-05T08:09:01.358Z,3.20
2019-01-05T08:12:09.442Z,3.00
2019-01-05T08:15:10.186Z,2.92
2019-01-05T08:18:28.097Z,3.30
2019-01-05T08:21:21.674Z,3.15
2019-01-05T08:24:39.472Z,4.30
2019-01-05T08:27:51.332Z,3.90
2019-01-05T08:31:04.945Z,3.10
2019-01-05T08:34:35.178Z,3.25
2019-01-05T08:37:42.707Z,3.47
2019-01-05T08:40:53.479Z,3.67
2019-01-05T08:43:57.581Z,3.60
2019-01-05T08:47:01.375Z,3.87
2019-01-05T08:50:10.444Z,3.60
2019-01-05T08:53:14.167Z,3.47
2019-01-05T08:56:37.536Z,3.35
2019-01-05T09:00:04.388Z,3.22
2019-01-05T09:03:34.027Z,3.50
2019-01-05T09:06:48.104Z,3.40
2019-01-05T09:10:05.423Z,3.40
2019-01-05T09:13:29.645Z,3.52
2019-01-05T09:16:43.941Z,3.35
2019-01-05T09:20:12.565Z,3.40
2019-01-05T09:23:17.622Z,3.50
2019-01-05T09:26:18.917Z,3.80
2019-01-05T09:29:24.515Z,6.87
2019-01-05T09:32:22.950Z,4.28
2019-01-05T09:35:44.244Z,3.90
2019-01-05T09:38:47.630Z,4.80
2019-01-05T09:42:05.801Z,7.17
2019-01-05T09:45:26.257Z,4.67
2019-01-05T09:48:41.333Z,5.70
2019-01-05T09:52:00.905Z,4.00
2019-01-05T09:55:15.785Z,3.67
2019-01-05T09:58:15.397Z,6.45
2019-01-05T10:01:41.465Z,7.60
2019-01-05T10:04:53.621Z,3.98
2019-01-05T10:07:53.550Z,4.00
2019-01-05T10:11:12.618Z,3.73
2019-01-05T10:14:17.330Z,4.40
2019-01-05T10:17:44.301Z,3.37
2019-01-05T10:20:55.206Z,3.60
2019-01-05T10:24:02.941Z,3.45
2019-01-05T10:27:18.853Z,3.70
2019-01-05T10:30:23.509Z,3.70
2019-01-05T10:33:31.322Z,3.65
2019-01-05T10:36:47.773Z,3.22
2019-01-05T10:39:54.374Z,3.42
2019-01-05T10:43:03.970Z,3.90
2019-01-05T10:46:12.141Z,3.98
2019-01-05T10:49:19.211Z,4.62
2019-01-05T10:52:17.617Z,3.90
2019-01-05T10:55:16.757Z,3.35
2019-01-05T10:58:20.900Z,3.70
2019-01-05T11:01:34.678Z,3.37
2019-01-05T11:04:48.669Z,3.67
2019-01-05T11:08:02.819Z,3.60
2019-01-05T11:11:11.825Z,3.67
2019-01-05T11:14:21.317Z,3.50
2019-01-05T11:17:32.046Z,3.55
2019-01-05T11:20:53.251Z,4.03
2019-01-05T11:24:11.241Z,3.50
2019-01-05T11:27:22.179Z,3.40
2019-01-05T11:30:26.796Z,4.08
2019-01-05T11:34:04.070Z,3.10
2019-01-05T11:37:02.793Z,3.50
2019-01-05T11:40:03.079Z,3.60
2019-01-05T11:43:06.733Z,3.52
2019-01-05T11:46:15.849Z,3.95
2019-01-05T11:49:08.616Z,3.40
2019-01-05T11:52:28.287Z,3.20
2019-01-05T11:55:44.723Z,3.05
2019-01-05T11:59:11.831Z,3.08
2019-01-05T12:02:19.602Z,3.20
2019-01-05T12:05:17.295Z,3.40
2019-01-05T12:08:20.898Z,3.60
2019-01-05T12:12:03.911Z,3.20
2019-01-05T12:15:01.625Z,3.10
2019-01-05T12:17:59.909Z,3.25
2019-01-05T12:21:23.883Z,3.30
2019-01-05T12:24:47.075Z,3.30
2019-01-05T12:28:11.437Z,18.27
2019-01-05T12:31:17.107Z,5.33
2019-01-05T12:34:34.951Z,5.72
2019-01-05T12:37:55.126Z,3.83
2019-01-05T12:41:01.998Z,3.87
2019-01-05T12:44:04.558Z,5.08
2019-01-05T12:47:28.485Z,3.90
2019-01-05T12:50:36.024Z,4.77
2019-01-05T12:53:44.078Z,3.40
2019-01-05T12:56:49.337Z,3.87
2019-01-05T13:00:03.467Z,3.40
2019-01-05T13:03:11.746Z,3.72
2019-01-05T13:06:20.330Z,3.10
2019-01-05T13:09:37.654Z,2.90
2019-01-05T13:12:38.700Z,3.80
2019-01-05T13:15:56.932Z,3.20
2019-01-05T13:19:02.130Z,3.20
2019-01-05T13:22:17.559Z,3.40
2019-01-05T13:25:21.584Z,3.00
2019-01-05T13:28:25.744Z,3.27
2019-01-05T13:31:56.249Z,3.00
2019-01-05T13:35:13.785Z,3.33
2019-01-05T13:38:37.858Z,3.10
2019-01-05T13:42:00.902Z,3.00
2019-01-05T13:45:34.402Z,2.90
2019-01-05T13:48:33.320Z,2.87
2019-01-05T13:51:40.247Z,3.40
2019-01-05T13:54:26.947Z,3.27
2019-01-05T13:57:15.573Z,3.00
2019-01-05T14:00:08.918Z,3.30
2019-01-05T14:02:57.294Z,2.98
2019-01-05T14:05:46.997Z,3.50
2019-01-05T14:08:46.820Z,3.22
2019-01-05T14:11:29.639Z,3.40
2019-01-05T14:14:10.776Z,3.35
2019-01-05T14:17:01.461Z,3.27
2019-01-05T14:19:41.579Z,3.08
2019-01-05T14:22:33.049Z,3.60
2019-01-05T14:25:20.189Z,3.00
2019-01-05T14:28:06.171Z,4.00
2019-01-05T14:30:52.445Z,3.92
2019-01-05T14:33:39.562Z,3.27
2019-01-05T14:36:20.638Z,3.40
2019-01-05T14:39:07.924Z,3.40
2019-01-05T14:41:54.845Z,3.15
2019-01-05T14:44:40.666Z,3.02
2019-01-05T14:47:28.397Z,3.17
2019-01-05T14:50:29.912Z,3.40
2019-01-05T14:53:15.714Z,3.72
2019-01-05T14:56:13.226Z,4.40
2019-01-05T14:59:14.863Z,3.50
2019-01-05T15:02:15.794Z,4.10
2019-01-05T15:05:01.606Z,4.03
2019-01-05T15:08:04.182Z,3.98
2019-01-05T15:10:51.193Z,3.70
2019-01-05T15:13:48.690Z,3.50
2019-01-05T15:16:41.641Z,3.77
2019-01-05T15:19:28.950Z,3.77
2019-01-05T15:22:22.082Z,3.80
2019-01-05T15:25:08.081Z,3.75
2019-01-05T15:27:54.197Z,3.70
2019-01-05T15:30:47.764Z,4.00
2019-01-05T15:33:35.183Z,4.00
2019-01-05T15:36:21.569Z,4.70
2019-01-05T15:39:02.418Z,4.40
2019-01-05T15:41:50.762Z,3.83
2019-01-05T15:44:43.402Z,3.00
2019-01-05T15:47:42.766Z,2.60
2019-01-05T15:50:31.113Z,2.70
2019-01-05T15:53:19.890Z,4.95
2019-01-05T15:56:11.197Z,8.15
2019-01-05T15:59:16.693Z,4.03
2019-01-05T16:02:02.426Z,3.33
2019-01-05T16:04:48.620Z,6.30
2019-01-05T16:07:40.016Z,12.18
2019-01-05T16:10:35.632Z,12.50
2019-01-05T16:13:23.198Z,4.72
2019-01-05T16:16:16.838Z,4.10
2019-01-05T16:19:03.875Z,3.90
2019-01-05T16:21:51.111Z,4.42
2019-01-05T16:24:41.070Z,4.00
2019-01-05T16:27:32.850Z,4.30
2019-01-05T16:30:18.877Z,4.42
2019-01-05T16:33:04.727Z,4.03
2019-01-05T16:35:50.990Z,2.90
2019-01-05T16:38:53.094Z,2.70
2019-01-05T16:41:38.834Z,2.77
2019-01-05T16:44:25.086Z,3.33
2019-01-05T16:47:11.650Z,3.40
2019-01-05T16:49:58.038Z,3.40
2019-01-05T16:52:53.503Z,3.40
2019-01-05T16:55:53.055Z,3.00
2019-01-05T16:58:39.156Z,2.83
2019-01-05T17:01:28.791Z,3.12
2019-01-05T17:04:14.654Z,3.80
2019-01-05T17:07:00.817Z,3.30
2019-01-05T17:09:42.159Z,3.40
2019-01-05T17:12:44.682Z,3.10
2019-01-05T17:15:34.869Z,3.10
2019-01-05T17:18:27.174Z,5.60
2019-01-05T17:21:13.412Z,3.00
2019-01-05T17:23:51.490Z,2.40
2019-01-05T17:26:44.842Z,2.00
2019-01-05T17:29:35.078Z,1.70
2019-01-05T17:32:40.847Z,2.00
2019-01-05T17:35:37.083Z,1.87
2019-01-05T17:38:23.428Z,1.80
2019-01-05T17:41:29.135Z,1.20
2019-01-05T17:44:10.086Z,1.52
2019-01-05T17:46:49.048Z,1.30
2019-01-05T17:49:39.253Z,1.60
2019-01-05T17:52:38.720Z,1.50
2019-01-05T17:55:41.208Z,1.10
2019-01-05T17:58:46.850Z,1.10
2019-01-05T18:01:35.217Z,1.30
2019-01-05T18:04:22.540Z,0.90
2019-01-05T18:07:16.024Z,0.70
2019-01-05T18:10:09.618Z,0.80
2019-01-05T18:12:55.752Z,10.63
2019-01-05T18:15:49.327Z,6.85
2019-01-05T18:18:34.234Z,5.05
2019-01-05T18:21:27.982Z,5.10
2019-01-05T18:24:14.284Z,6.10
2019-01-05T18:26:54.218Z,1.60
2019-01-05T18:29:58.341Z,1.45
2019-01-05T18:32:45.517Z,1.00
2019-01-05T18:35:32.680Z,1.20
2019-01-05T18:38:18.981Z,1.30
2019-01-05T18:41:04.849Z,6.45
2019-01-05T18:43:47.887Z,2.00
2019-01-05T18:46:34.187Z,1.10
2019-01-05T18:49:17.328Z,1.40
2019-01-05T18:52:03.683Z,2.27
2019-01-05T18:55:08.920Z,1.70
2019-01-05T18:57:58.371Z,1.40
2019-01-05T19:00:57.999Z,1.42
2019-01-05T19:03:48.601Z,1.30
2019-01-05T19:06:32.078Z,1.40
2019-01-05T19:09:17.777Z,1.20
2019-01-05T19:12:08.758Z,2.02
2019-01-05T19:14:52.769Z,1.40
2019-01-05T19:17:46.130Z,1.30
2019-01-05T19:20:32.167Z,1.32
2019-01-05T19:23:18.602Z,1.20
2019-01-05T19:26:04.658Z,1.10
2019-01-05T19:28:43.423Z,1.27
2019-01-05T19:31:33.310Z,1.00
2019-01-05T19:34:26.701Z,1.20
2019-01-05T19:37:13.204Z,1.20
2019-01-05T19:40:15.418Z,1.20
2019-01-05T19:43:03.575Z,1.20
2019-01-05T19:45:49.759Z,1.00
2019-01-05T19:48:40.861Z,1.30
2019-01-05T19:51:37.200Z,1.10
2019-01-05T19:54:27.685Z,1.00
2019-01-05T19:57:33.316Z,1.00
2019-01-05T20:00:25.819Z,1.10
2019-01-05T20:03:22.135Z,2.47
2019-01-05T20:06:25.245Z,2.22
2019-01-05T20:09:18.597Z,1.20
2019-01-05T20:12:05.934Z,1.52
2019-01-05T20:14:53.404Z,2.10
2019-01-05T20:17:39.437Z,1.62
2019-01-05T20:20:25.428Z,1.60
2019-01-05T20:23:12.813Z,1.57
2019-01-05T20:26:00.446Z,1.40
2019-01-05T20:28:50.677Z,2.30
2019-01-05T20:31:42.404Z,2.27
2019-01-05T20:34:29.788Z,1.50
2019-01-05T20:37:17.670Z,16.97
2019-01-05T20:40:20.431Z,26.45
2019-01-05T20:43:13.613Z,22.22
2019-01-05T20:45:59.413Z,25.08
2019-01-05T20:48:52.769Z,16.80
2019-01-05T20:51:38.877Z,10.40
2019-01-05T20:54:24.969Z,8.15
2019-01-05T20:57:15.411Z,2.20
2019-01-05T21:00:21.003Z,1.30
2019-01-05T21:03:12.121Z,1.30
2019-01-05T21:05:58.204Z,1.00
2019-01-05T21:08:44.650Z,0.97
2019-01-05T21:11:44.397Z,0.70
2019-01-05T21:14:30.469Z,0.80
2019-01-05T21:17:14.938Z,0.80
2019-01-05T21:20:01.986Z,0.82
2019-01-05T21:23:02.284Z,0.70
2019-01-05T21:25:54.359Z,0.80
2019-01-05T21:28:44.548Z,0.83
2019-01-05T21:31:30.645Z,0.82
2019-01-05T21:34:20.936Z,1.00
2019-01-05T21:37:26.900Z,1.00
2019-01-05T21:40:33.185Z,1.10
2019-01-05T21:43:11.639Z,1.00
2019-01-05T21:45:57.369Z,0.90
2019-01-05T21:48:48.435Z,1.10
2019-01-05T21:51:44.526Z,1.10
2019-01-05T21:54:30.334Z,15.35
2019-01-05T21:57:29.969Z,30.05
2019-01-05T22:00:15.916Z,23.27
2019-01-05T22:02:57.201Z,16.77
2019-01-05T22:05:50.654Z,9.43
2019-01-05T22:08:50.129Z,7.62
2019-01-05T22:11:33.662Z,7.05
2019-01-05T22:14:15.089Z,4.92
2019-01-05T22:17:01.071Z,4.65
2019-01-05T22:20:00.990Z,1.90
2019-01-05T22:22:39.364Z,1.82
2019-01-05T22:25:38.601Z,1.80
2019-01-05T22:28:25.061Z,1.82
2019-01-05T22:31:12.089Z,1.90
2019-01-05T22:33:58.689Z,2.10
2019-01-05T22:36:45.858Z,2.00
2019-01-05T22:39:33.074Z,1.97
2019-01-05T22:42:23.761Z,2.17
2019-01-05T22:45:09.871Z,3.00
2019-01-05T22:48:07.741Z,3.03
2019-01-05T22:50:54.361Z,2.22
2019-01-05T22:53:41.378Z,2.25
2019-01-05T22:56:41.037Z,2.47
2019-01-05T22:59:34.334Z,2.70
2019-01-05T23:02:24.598Z,2.80
2019-01-05T23:05:20.957Z,3.20
2019-01-05T23:08:07.386Z,3.67
2019-01-05T23:11:00.625Z,4.00
2019-01-05T23:13:50.613Z,3.80
2019-01-05T23:16:49.985Z,3.60
2019-01-05T23:19:36.394Z,4.25
2019-01-05T23:22:33.866Z,4.05
2019-01-05T23:25:20.806Z,4.43
2019-01-05T23:28:07.263Z,4.50
2019-01-05T23:30:57.920Z,5.30
2019-01-05T23:34:03.384Z,5.00
2019-01-05T23:36:50.514Z,5.22
2019-01-05T23:39:37.590Z,5.08
2019-01-05T23:42:29.275Z,5.30
2019-01-05T23:45:19.554Z,5.37
2019-01-05T23:48:06.133Z,5.17
2019-01-05T23:50:53.134Z,5.20
2019-01-05T23:53:39.020Z,5.30
2019-01-05T23:56:25.444Z,5.60
2019-01-05T23:59:11.046Z,5.35
